Terminal Aerodrome Forecast
Issued by NWS

Home | Current Version | Previous Version | Text Only | Print | Product List | Glossary On
Versions: 1 2 3 4 5 6 7 8 9 10 11 12 13
226
FTUS44 KLIX 031120
TAFMSY
TAF
KMSY 031120Z 0312/0412 07011KT P6SM VCSH FEW080 OVC100
     FM040100 10016G23KT P6SM -SHRA OVC025
     FM040400 10014KT P6SM -SHRA OVC010=

USA.gov is the U.S. government's official web portal to all federal, state and local government web resources and services.